createdAt,value
2018-10-06T00:02:24.564Z,22.40
2018-10-06T00:04:52.035Z,22.39
2018-10-06T00:07:18.764Z,22.39
2018-10-06T00:09:45.525Z,22.36
2018-10-06T00:12:12.268Z,22.39
2018-10-06T00:14:38.945Z,22.38
2018-10-06T00:17:05.680Z,22.33
2018-10-06T00:19:32.354Z,22.34
2018-10-06T00:21:59.026Z,22.34
2018-10-06T00:24:25.725Z,22.35
2018-10-06T00:26:52.500Z,22.33
2018-10-06T00:29:19.239Z,22.31
2018-10-06T00:31:45.955Z,22.30
2018-10-06T00:34:12.764Z,22.30
2018-10-06T00:39:06.011Z,22.31
2018-10-06T00:41:34.026Z,22.28
2018-10-06T00:43:59.490Z,22.25
2018-10-06T00:46:26.220Z,22.26
2018-10-06T00:48:52.920Z,22.25
2018-10-06T00:51:19.594Z,22.27
2018-10-06T00:53:46.375Z,22.25
2018-10-06T00:56:14.429Z,22.24
2018-10-06T00:58:39.903Z,22.24
2018-10-06T01:01:06.537Z,22.21
2018-10-06T01:03:36.685Z,22.21
2018-10-06T01:06:03.423Z,22.20
2018-10-06T01:08:31.487Z,22.23
2018-10-06T01:10:58.129Z,22.20
2018-10-06T01:13:23.622Z,22.19
2018-10-06T01:15:50.364Z,22.19
2018-10-06T01:18:17.031Z,22.18
2018-10-06T01:20:43.725Z,22.15
2018-10-06T01:23:10.459Z,22.18
2018-10-06T01:25:40.467Z,22.14
2018-10-06T01:28:07.204Z,22.16
2018-10-06T01:30:33.920Z,22.18
2018-10-06T01:33:00.587Z,22.15
2018-10-06T01:35:27.352Z,22.13
2018-10-06T01:37:57.560Z,22.13
2018-10-06T01:40:27.638Z,22.11
2018-10-06T01:42:54.339Z,22.13
2018-10-06T01:45:21.221Z,22.13
2018-10-06T01:47:48.062Z,22.13
2018-10-06T01:50:14.834Z,22.10
2018-10-06T01:52:41.571Z,22.09
2018-10-06T01:55:08.311Z,22.07
2018-10-06T01:57:35.001Z,22.06
2018-10-06T02:00:01.689Z,22.08
2018-10-06T02:02:28.379Z,22.10
2018-10-06T02:04:57.088Z,22.09
2018-10-06T02:07:22.144Z,22.09
2018-10-06T02:09:48.957Z,22.06
2018-10-06T02:12:16.986Z,22.07
2018-10-06T02:14:42.405Z,22.01
2018-10-06T02:17:09.209Z,22.04
2018-10-06T02:19:35.870Z,22.02
2018-10-06T02:22:02.655Z,22.04
2018-10-06T02:24:29.342Z,22.04
2018-10-06T02:26:56.027Z,22.02
2018-10-06T02:29:22.702Z,22.03
2018-10-06T02:31:52.053Z,22.00
2018-10-06T02:34:20.038Z,22.01
2018-10-06T02:36:45.470Z,22.02
2018-10-06T02:39:12.095Z,21.95
2018-10-06T02:41:38.857Z,21.99
2018-10-06T02:44:05.576Z,21.99
2018-10-06T02:46:32.265Z,21.96
2018-10-06T02:48:58.944Z,21.97
2018-10-06T02:51:25.621Z,21.98
2018-10-06T02:53:52.314Z,21.95
2018-10-06T02:56:19.003Z,21.95
2018-10-06T02:58:45.692Z,21.92
2018-10-06T03:01:12.372Z,21.86
2018-10-06T03:03:39.045Z,21.90
2018-10-06T03:06:05.819Z,21.88
2018-10-06T03:08:32.592Z,21.89
2018-10-06T03:11:00.599Z,21.87
2018-10-06T03:13:27.288Z,21.83
2018-10-06T03:15:52.618Z,21.87
2018-10-06T03:18:21.424Z,21.84
2018-10-06T03:20:49.025Z,21.84
2018-10-06T03:23:15.780Z,21.86
2018-10-06T03:25:42.570Z,21.74
2018-10-06T03:28:09.244Z,21.84
2018-10-06T03:30:36.036Z,21.83
2018-10-06T03:33:02.802Z,21.81
2018-10-06T03:35:29.487Z,21.82
2018-10-06T03:37:58.653Z,21.78
2018-10-06T03:40:25.347Z,21.81
2018-10-06T03:42:52.054Z,21.78
2018-10-06T03:45:21.752Z,21.78
2018-10-06T03:47:48.593Z,21.74
2018-10-06T03:50:15.296Z,21.77
2018-10-06T03:52:41.973Z,21.74
2018-10-06T03:55:08.656Z,21.74
2018-10-06T03:57:35.339Z,21.76
2018-10-06T04:00:02.032Z,21.76
2018-10-06T04:02:28.857Z,21.71
2018-10-06T04:04:55.494Z,21.72
2018-10-06T04:07:22.171Z,21.71
2018-10-06T04:09:48.850Z,21.71
2018-10-06T04:12:16.617Z,21.70
2018-10-06T04:14:43.462Z,21.67
2018-10-06T04:17:10.047Z,21.69
2018-10-06T04:19:38.103Z,21.67
2018-10-06T04:22:03.366Z,21.69
2018-10-06T04:24:30.020Z,21.67
2018-10-06T04:26:56.664Z,21.65
2018-10-06T04:29:23.303Z,21.63
2018-10-06T04:31:50.006Z,21.67
2018-10-06T04:34:16.989Z,21.62
2018-10-06T04:36:43.626Z,21.65
2018-10-06T04:39:10.280Z,21.65
2018-10-06T04:41:36.929Z,21.65
2018-10-06T04:44:03.647Z,21.65
2018-10-06T04:46:30.289Z,21.67
2018-10-06T04:48:58.578Z,21.70
2018-10-06T04:51:23.629Z,21.71
2018-10-06T04:53:51.306Z,21.76
2018-10-06T04:56:17.944Z,21.77
2018-10-06T04:58:44.685Z,21.82
2018-10-06T05:01:12.421Z,21.85
2018-10-06T05:03:41.657Z,21.82
2018-10-06T05:06:08.387Z,21.83
2018-10-06T05:08:38.142Z,21.92
2018-10-06T05:11:04.789Z,21.94
2018-10-06T05:13:31.459Z,22.00
2018-10-06T05:15:58.114Z,22.02
2018-10-06T05:18:24.718Z,21.99
2018-10-06T05:20:52.355Z,21.98
2018-10-06T05:23:18.077Z,22.18
2018-10-06T05:25:48.171Z,22.96
2018-10-06T05:28:14.808Z,22.93
2018-10-06T05:30:41.488Z,22.42
2018-10-06T05:33:09.192Z,22.36
2018-10-06T05:35:34.795Z,22.30
2018-10-06T05:38:01.457Z,22.32
2018-10-06T05:40:28.098Z,22.33
2018-10-06T05:42:54.821Z,22.39
2018-10-06T05:45:21.461Z,22.43
2018-10-06T05:47:48.112Z,22.46
2018-10-06T05:50:14.782Z,22.49
2018-10-06T05:52:41.431Z,22.53
2018-10-06T05:55:08.195Z,22.55
2018-10-06T05:57:34.843Z,22.60
2018-10-06T06:00:01.518Z,22.64
2018-10-06T06:02:28.189Z,22.66
2018-10-06T06:04:56.064Z,22.69
2018-10-06T06:07:21.724Z,22.72
2018-10-06T06:09:48.391Z,22.76
2018-10-06T06:12:19.613Z,22.84
2018-10-06T06:14:41.843Z,22.95
2018-10-06T06:17:08.492Z,23.00
2018-10-06T06:19:35.150Z,23.04
2018-10-06T06:22:01.857Z,23.06
2018-10-06T06:24:28.520Z,23.09
2018-10-06T06:26:55.290Z,23.10
2018-10-06T06:29:21.954Z,23.14
2018-10-06T06:31:48.769Z,23.15
2018-10-06T06:34:15.459Z,23.15
2018-10-06T06:36:42.163Z,23.20
2018-10-06T06:39:08.840Z,23.23
2018-10-06T06:41:35.535Z,23.26
2018-10-06T06:44:02.311Z,23.26
2018-10-06T06:46:28.922Z,23.28
2018-10-06T06:48:55.643Z,23.32
2018-10-06T06:51:22.336Z,23.32
2018-10-06T06:53:48.979Z,23.32
2018-10-06T06:56:15.705Z,23.34
2018-10-06T06:58:42.345Z,23.35
2018-10-06T07:01:10.406Z,23.34
2018-10-06T07:03:35.755Z,23.37
2018-10-06T07:06:02.394Z,23.37
2018-10-06T07:08:29.067Z,23.38
2018-10-06T07:10:55.747Z,23.39
2018-10-06T07:13:22.415Z,23.43
2018-10-06T07:15:49.073Z,23.43
2018-10-06T07:18:15.723Z,23.41
2018-10-06T07:20:42.366Z,23.41
2018-10-06T07:23:10.238Z,23.46
2018-10-06T07:25:35.691Z,23.45
2018-10-06T07:28:02.397Z,23.46
2018-10-06T07:30:29.037Z,23.45
2018-10-06T07:32:55.704Z,23.47
2018-10-06T07:35:22.417Z,23.47
2018-10-06T07:37:49.053Z,23.45
2018-10-06T07:40:21.203Z,23.44
2018-10-06T07:42:45.276Z,23.45
2018-10-06T07:45:11.984Z,23.47
2018-10-06T07:47:38.688Z,23.44
2018-10-06T07:50:05.315Z,23.42
2018-10-06T07:52:31.965Z,23.43
2018-10-06T07:54:58.637Z,23.43
2018-10-06T07:57:25.301Z,23.39
2018-10-06T07:59:51.967Z,23.44
2018-10-06T08:02:18.617Z,23.42
2018-10-06T08:04:45.357Z,23.43
2018-10-06T08:07:11.999Z,23.37
2018-10-06T08:09:38.669Z,23.38
2018-10-06T08:12:05.352Z,23.41
2018-10-06T08:14:32.010Z,23.43
2018-10-06T08:16:58.659Z,23.43
2018-10-06T08:19:25.369Z,23.42
2018-10-06T08:21:52.072Z,23.45
2018-10-06T08:24:18.767Z,23.44
2018-10-06T08:26:45.405Z,23.43
2018-10-06T08:29:12.148Z,23.43
2018-10-06T08:31:38.873Z,23.42
2018-10-06T08:34:05.637Z,23.38
2018-10-06T08:36:32.432Z,23.38
2018-10-06T08:38:59.073Z,23.38
2018-10-06T08:41:25.819Z,23.37
2018-10-06T08:43:52.618Z,23.38
2018-10-06T08:46:19.373Z,23.36
2018-10-06T08:48:46.142Z,23.36
2018-10-06T08:51:12.811Z,23.36
2018-10-06T08:53:39.564Z,23.35
2018-10-06T08:56:06.328Z,23.35
2018-10-06T08:58:32.925Z,23.31
2018-10-06T09:00:59.573Z,23.36
2018-10-06T09:03:26.275Z,23.39
2018-10-06T09:05:53.011Z,23.33
2018-10-06T09:08:19.787Z,23.34
2018-10-06T09:10:46.738Z,23.29
2018-10-06T09:13:13.338Z,23.29
2018-10-06T09:15:40.044Z,23.32
2018-10-06T09:18:06.686Z,23.33
2018-10-06T09:20:33.332Z,23.33
2018-10-06T09:22:59.970Z,23.34
2018-10-06T09:25:26.729Z,23.34
2018-10-06T09:27:53.381Z,23.33
2018-10-06T09:30:20.179Z,23.35
2018-10-06T09:32:46.847Z,23.35
2018-10-06T09:35:13.531Z,23.35
2018-10-06T09:37:40.228Z,23.33
2018-10-06T09:40:06.884Z,23.35
2018-10-06T09:42:33.873Z,23.37
2018-10-06T09:45:00.351Z,23.37
2018-10-06T09:47:27.004Z,23.40
2018-10-06T09:49:55.062Z,23.38
2018-10-06T09:52:20.456Z,23.37
2018-10-06T09:54:47.116Z,23.41
2018-10-06T09:57:14.765Z,23.41
2018-10-06T09:59:40.502Z,23.41
2018-10-06T10:02:09.917Z,23.39
2018-10-06T10:04:36.746Z,23.43
2018-10-06T10:07:03.369Z,23.43
2018-10-06T10:09:30.185Z,23.46
2018-10-06T10:11:56.750Z,23.50
2018-10-06T10:14:23.479Z,23.48
2018-10-06T10:16:50.233Z,23.43
2018-10-06T10:19:16.777Z,23.44
2018-10-06T10:21:43.574Z,23.46
2018-10-06T10:24:10.183Z,23.46
2018-10-06T10:26:36.969Z,23.45
2018-10-06T10:29:03.615Z,23.44
2018-10-06T10:31:30.296Z,23.49
2018-10-06T10:33:57.129Z,23.49
2018-10-06T10:36:23.776Z,23.49
2018-10-06T10:38:50.461Z,23.48
2018-10-06T10:41:17.110Z,23.49
2018-10-06T10:43:43.896Z,23.56
2018-10-06T10:46:10.605Z,23.53
2018-10-06T10:48:37.281Z,23.52
2018-10-06T10:51:03.953Z,23.52
2018-10-06T10:53:30.629Z,23.53
2018-10-06T10:55:57.253Z,23.54
2018-10-06T10:58:23.912Z,23.59
2018-10-06T11:00:50.598Z,23.59
2018-10-06T11:03:17.610Z,23.60
2018-10-06T11:05:44.279Z,23.62
2018-10-06T11:08:11.133Z,23.62
2018-10-06T11:10:37.841Z,23.68
2018-10-06T11:13:04.482Z,23.65
2018-10-06T11:15:34.438Z,23.76
2018-10-06T11:18:01.086Z,23.81
2018-10-06T11:20:27.802Z,23.71
2018-10-06T11:22:54.589Z,23.58
2018-10-06T11:25:21.274Z,23.60
2018-10-06T11:27:51.503Z,23.62
2018-10-06T11:30:18.151Z,23.63
2018-10-06T11:32:44.786Z,23.64
2018-10-06T11:35:11.491Z,23.67
2018-10-06T11:37:38.275Z,23.71
2018-10-06T11:40:04.927Z,23.75
2018-10-06T11:42:31.566Z,23.72
2018-10-06T11:44:58.260Z,23.72
2018-10-06T11:47:24.983Z,23.78
2018-10-06T11:49:51.702Z,23.82
2018-10-06T11:52:18.307Z,23.80
2018-10-06T11:54:44.951Z,23.78
2018-10-06T11:57:16.732Z,23.79
2018-10-06T11:59:45.953Z,23.82
2018-10-06T12:02:15.590Z,23.82
2018-10-06T12:04:42.267Z,23.82
2018-10-06T12:07:10.154Z,23.84
2018-10-06T12:09:35.728Z,23.84
2018-10-06T12:12:02.414Z,23.86
2018-10-06T12:14:29.056Z,23.88
2018-10-06T12:16:57.042Z,23.88
2018-10-06T12:19:22.468Z,23.87
2018-10-06T12:21:49.137Z,23.86
2018-10-06T12:24:15.899Z,23.90
2018-10-06T12:26:42.689Z,23.92
2018-10-06T12:29:09.418Z,23.91
2018-10-06T12:31:36.115Z,23.92
2018-10-06T12:34:02.812Z,23.93
2018-10-06T12:36:29.508Z,23.95
2018-10-06T12:38:58.997Z,23.95
2018-10-06T12:41:25.761Z,23.94
2018-10-06T12:43:52.381Z,23.97
2018-10-06T12:46:19.905Z,23.97
2018-10-06T12:48:48.045Z,23.98
2018-10-06T12:51:13.332Z,23.98
2018-10-06T12:53:39.982Z,23.97
2018-10-06T12:56:06.773Z,23.97
2018-10-06T12:58:33.432Z,23.97
2018-10-06T13:01:00.064Z,23.98
2018-10-06T13:03:26.825Z,23.99
2018-10-06T13:05:53.472Z,23.99
2018-10-06T13:08:20.266Z,24.00
2018-10-06T13:10:47.031Z,23.98
2018-10-06T13:13:13.685Z,24.00
2018-10-06T13:15:40.402Z,24.03
2018-10-06T13:18:10.328Z,24.02
2018-10-06T13:20:39.912Z,23.99
2018-10-06T13:23:06.577Z,24.02
2018-10-06T13:25:33.299Z,24.02
2018-10-06T13:27:59.982Z,24.01
2018-10-06T13:30:26.772Z,24.05
2018-10-06T13:32:55.427Z,24.06
2018-10-06T13:35:20.055Z,24.04
2018-10-06T13:37:46.821Z,24.04
2018-10-06T13:40:13.475Z,24.01
2018-10-06T13:42:40.294Z,24.04
2018-10-06T13:45:07.005Z,24.05
2018-10-06T13:47:33.640Z,24.06
2018-10-06T13:50:00.524Z,24.05
2018-10-06T13:52:30.275Z,24.04
2018-10-06T13:54:56.963Z,24.04
2018-10-06T13:57:23.713Z,24.04
2018-10-06T13:59:54.321Z,24.03
2018-10-06T14:02:23.051Z,24.02
2018-10-06T14:04:49.717Z,24.02
2018-10-06T14:07:16.408Z,24.01
2018-10-06T14:09:43.135Z,24.01
2018-10-06T14:12:09.738Z,24.02
2018-10-06T14:14:36.442Z,24.00
2018-10-06T14:17:04.209Z,24.00
2018-10-06T14:19:29.805Z,23.98
2018-10-06T14:21:56.558Z,23.99
2018-10-06T14:24:23.200Z,23.97
2018-10-06T14:26:50.120Z,23.96
2018-10-06T14:29:18.020Z,23.96
2018-10-06T14:31:43.469Z,23.95
2018-10-06T14:34:10.183Z,23.95
2018-10-06T14:36:36.825Z,23.93
2018-10-06T14:39:06.886Z,23.94
2018-10-06T14:41:33.539Z,23.92
2018-10-06T14:44:00.195Z,23.92
2018-10-06T14:46:26.852Z,23.91
2018-10-06T14:48:53.573Z,23.88
2018-10-06T14:51:20.302Z,23.86
2018-10-06T14:53:46.943Z,23.84
2018-10-06T14:56:13.590Z,23.83
2018-10-06T14:58:40.304Z,23.84
2018-10-06T15:01:06.952Z,23.83
2018-10-06T15:03:33.783Z,23.79
2018-10-06T15:06:00.354Z,23.77
2018-10-06T15:08:26.993Z,23.75
2018-10-06T15:10:53.651Z,23.75
2018-10-06T15:13:20.289Z,23.75
2018-10-06T15:15:46.948Z,23.72
2018-10-06T15:18:13.602Z,23.73
2018-10-06T15:20:40.272Z,23.77
2018-10-06T15:23:06.899Z,23.68
2018-10-06T15:25:35.291Z,23.65
2018-10-06T15:28:00.385Z,23.65
2018-10-06T15:30:28.650Z,23.73
2018-10-06T15:32:53.697Z,23.64
2018-10-06T15:35:20.365Z,23.63
2018-10-06T15:37:50.026Z,23.68
2018-10-06T15:40:16.637Z,23.62
2018-10-06T15:42:46.784Z,23.61
2018-10-06T15:45:13.393Z,23.58
2018-10-06T15:47:40.036Z,23.60
2018-10-06T15:50:06.745Z,23.54
2018-10-06T15:52:33.413Z,23.58
2018-10-06T15:55:00.051Z,23.52
2018-10-06T15:57:26.717Z,23.56
2018-10-06T15:59:53.389Z,23.62
2018-10-06T16:02:20.036Z,23.53
2018-10-06T16:04:46.671Z,23.45
2018-10-06T16:07:13.320Z,23.45
2018-10-06T16:09:39.962Z,23.46
2018-10-06T16:12:06.598Z,23.44
2018-10-06T16:14:33.256Z,23.39
2018-10-06T16:16:59.904Z,23.38
2018-10-06T16:19:26.622Z,23.40
2018-10-06T16:21:53.269Z,23.46
2018-10-06T16:24:19.965Z,23.31
2018-10-06T16:26:46.681Z,23.38
2018-10-06T16:29:13.321Z,23.33
2018-10-06T16:31:39.973Z,23.28
2018-10-06T16:34:06.722Z,23.25
2018-10-06T16:36:35.512Z,23.24
2018-10-06T16:39:02.192Z,23.21
2018-10-06T16:41:28.832Z,23.23
2018-10-06T16:43:55.503Z,23.27
2018-10-06T16:46:22.160Z,23.26
2018-10-06T16:48:48.875Z,23.25
2018-10-06T16:51:15.526Z,23.17
2018-10-06T16:53:42.175Z,23.16
2018-10-06T16:56:10.131Z,23.13
2018-10-06T16:58:35.469Z,23.15
2018-10-06T17:01:02.128Z,23.21
2018-10-06T17:03:28.768Z,23.14
2018-10-06T17:05:55.539Z,23.13
2018-10-06T17:08:22.152Z,23.11
2018-10-06T17:10:48.832Z,23.09
2018-10-06T17:13:15.524Z,23.14
2018-10-06T17:15:42.161Z,23.10
2018-10-06T17:18:08.875Z,23.13
2018-10-06T17:20:35.568Z,23.12
2018-10-06T17:23:02.203Z,23.07
2018-10-06T17:25:28.812Z,23.05
2018-10-06T17:27:55.545Z,23.04
2018-10-06T17:30:22.253Z,23.05
2018-10-06T17:32:49.023Z,22.99
2018-10-06T17:35:15.735Z,23.03
2018-10-06T17:37:42.388Z,23.06
2018-10-06T17:40:09.027Z,23.00
2018-10-06T17:42:35.704Z,23.02
2018-10-06T17:45:02.344Z,22.98
2018-10-06T17:47:29.046Z,22.93
2018-10-06T17:49:55.776Z,23.00
2018-10-06T17:52:22.376Z,22.96
2018-10-06T17:54:49.024Z,22.94
2018-10-06T17:57:15.677Z,22.94
2018-10-06T17:59:42.449Z,22.89
2018-10-06T18:02:09.110Z,22.92
2018-10-06T18:04:35.747Z,22.88
2018-10-06T18:07:02.474Z,22.90
2018-10-06T18:09:29.124Z,22.86
2018-10-06T18:11:55.885Z,22.90
2018-10-06T18:14:24.157Z,22.85
2018-10-06T18:16:51.346Z,22.88
2018-10-06T18:19:15.909Z,22.90
2018-10-06T18:21:42.592Z,22.83
2018-10-06T18:24:09.206Z,22.87
2018-10-06T18:26:35.907Z,22.85
2018-10-06T18:29:02.672Z,22.83
2018-10-06T18:31:29.380Z,22.85
2018-10-06T18:33:56.040Z,22.82
2018-10-06T18:36:22.839Z,22.83
2018-10-06T18:38:49.432Z,22.83
2018-10-06T18:41:17.470Z,22.77
2018-10-06T18:43:42.880Z,22.78
2018-10-06T18:46:09.433Z,22.80
2018-10-06T18:48:36.164Z,22.82
2018-10-06T18:51:02.822Z,22.79
2018-10-06T18:53:29.469Z,22.81
2018-10-06T18:55:56.171Z,22.79
2018-10-06T18:58:22.806Z,22.79
2018-10-06T19:00:49.460Z,22.76
2018-10-06T19:03:16.199Z,22.79
2018-10-06T19:05:42.818Z,22.78
2018-10-06T19:08:11.137Z,22.79
2018-10-06T19:10:36.200Z,22.77
2018-10-06T19:13:02.842Z,22.77
2018-10-06T19:15:29.588Z,22.74
2018-10-06T19:17:56.203Z,22.75
2018-10-06T19:20:22.851Z,22.72
2018-10-06T19:22:49.536Z,22.70
2018-10-06T19:25:16.146Z,22.68
2018-10-06T19:27:43.009Z,22.68
2018-10-06T19:30:09.680Z,22.69
2018-10-06T19:32:36.352Z,22.69
2018-10-06T19:35:03.046Z,22.68
2018-10-06T19:37:29.731Z,22.67
2018-10-06T19:39:56.403Z,22.60
2018-10-06T19:42:23.044Z,22.62
2018-10-06T19:44:49.697Z,22.64
2018-10-06T19:47:16.438Z,22.61
2018-10-06T19:49:43.082Z,22.63
2018-10-06T19:52:11.822Z,22.61
2018-10-06T19:54:36.436Z,22.62
2018-10-06T19:57:05.197Z,22.63
2018-10-06T19:59:29.770Z,22.54
2018-10-06T20:01:56.379Z,22.63
2018-10-06T20:04:23.113Z,22.62
2018-10-06T20:06:52.422Z,22.64
2018-10-06T20:09:19.064Z,22.60
2018-10-06T20:11:45.739Z,22.53
2018-10-06T20:14:13.722Z,22.60
2018-10-06T20:16:39.041Z,22.56
2018-10-06T20:19:05.812Z,22.53
2018-10-06T20:21:37.105Z,22.53
2018-10-06T20:23:59.117Z,22.48
2018-10-06T20:26:25.772Z,22.52
2018-10-06T20:28:52.416Z,22.49
2018-10-06T20:31:19.060Z,22.51
2018-10-06T20:33:45.744Z,22.48
2018-10-06T20:36:12.361Z,22.46
2018-10-06T20:38:39.113Z,22.46
2018-10-06T20:41:05.751Z,22.49
2018-10-06T20:43:32.413Z,22.51
2018-10-06T20:46:00.418Z,22.43
2018-10-06T20:48:25.719Z,22.41
2018-10-06T20:50:52.360Z,22.40
2018-10-06T20:53:19.146Z,22.44
2018-10-06T20:55:45.758Z,22.41
2018-10-06T20:58:12.405Z,22.41
2018-10-06T21:00:39.059Z,22.36
2018-10-06T21:03:07.609Z,22.41
2018-10-06T21:05:34.266Z,22.46
2018-10-06T21:08:00.944Z,22.35
2018-10-06T21:10:28.907Z,22.35
2018-10-06T21:12:54.344Z,22.39
2018-10-06T21:15:25.301Z,22.38
2018-10-06T21:17:49.389Z,22.35
2018-10-06T21:20:14.514Z,22.36
2018-10-06T21:22:41.166Z,22.35
2018-10-06T21:25:07.803Z,22.35
2018-10-06T21:27:34.447Z,22.29
2018-10-06T21:30:01.090Z,22.32
2018-10-06T21:32:27.867Z,22.26
2018-10-06T21:34:54.510Z,22.29
2018-10-06T21:37:21.165Z,22.30
2018-10-06T21:39:47.848Z,22.31
2018-10-06T21:42:14.577Z,22.28
2018-10-06T21:44:41.217Z,22.30
2018-10-06T21:47:07.857Z,22.22
2018-10-06T21:49:34.665Z,22.29
2018-10-06T21:52:01.357Z,22.25
2018-10-06T21:54:27.995Z,22.22
2018-10-06T21:56:54.647Z,22.21
2018-10-06T21:59:21.390Z,22.23
2018-10-06T22:01:48.128Z,22.21
2018-10-06T22:04:15.666Z,22.20
2018-10-06T22:06:45.203Z,22.23
2018-10-06T22:09:11.939Z,22.21
2018-10-06T22:11:38.651Z,22.22
2018-10-06T22:14:05.297Z,22.21
2018-10-06T22:16:32.009Z,22.18
2018-10-06T22:18:58.628Z,22.17
2018-10-06T22:21:25.396Z,22.17
2018-10-06T22:23:55.081Z,22.16
2018-10-06T22:26:21.722Z,22.16
2018-10-06T22:28:48.384Z,22.12
2018-10-06T22:31:15.027Z,22.17
2018-10-06T22:33:41.750Z,22.18
2018-10-06T22:36:08.365Z,22.11
2018-10-06T22:38:35.063Z,22.14
2018-10-06T22:41:01.792Z,22.16
2018-10-06T22:43:29.918Z,22.11
2018-10-06T22:45:57.284Z,22.14
2018-10-06T22:48:26.899Z,22.12
2018-10-06T22:50:51.400Z,22.12
2018-10-06T22:53:18.056Z,22.12
2018-10-06T22:55:44.794Z,22.06
2018-10-06T22:58:11.449Z,22.14
2018-10-06T23:00:38.142Z,22.08
2018-10-06T23:03:06.160Z,22.06
2018-10-06T23:05:31.483Z,22.08
2018-10-06T23:07:58.250Z,22.08
2018-10-06T23:10:24.943Z,22.03
2018-10-06T23:12:51.617Z,22.03
2018-10-06T23:15:18.321Z,22.06
2018-10-06T23:17:45.016Z,22.05
2018-10-06T23:20:11.653Z,22.03
2018-10-06T23:22:38.308Z,22.02
2018-10-06T23:25:05.246Z,22.00
2018-10-06T23:27:31.930Z,22.02
2018-10-06T23:29:58.575Z,22.03
2018-10-06T23:32:25.239Z,22.03
2018-10-06T23:34:51.992Z,21.93
2018-10-06T23:37:18.631Z,21.98
2018-10-06T23:39:45.319Z,22.00
2018-10-06T23:42:16.204Z,22.01
2018-10-06T23:44:41.875Z,21.97
2018-10-06T23:47:08.536Z,21.95
2018-10-06T23:49:35.232Z,22.01
2018-10-06T23:52:01.925Z,21.98
2018-10-06T23:54:30.140Z,21.96
2018-10-06T23:56:55.316Z,21.94
2018-10-06T23:59:21.960Z,21.92
